Time;durP1;ratioP1;P1;durP2;ratioP2;P2;SDS_P1;SDS_P2;PMS_P1;PMS_P2;Temp;Humidity;BMP_temperature;BMP_pressure;BME280_temperature;BME280_humidity;BME280_pressure;Samples;Min_cycle;Max_cycle;Signal;HPM_P1;HPM_P2
2023/01/08 00:00:55;;;;;;;0.20;0.20;;;;;;;7.77;100.00;97382.50;7390229;19;20142;-79
2023/01/08 00:03:22;;;;;;;0.40;0.40;;;;;;;7.86;100.00;97376.63;7386192;19;20022;-79
2023/01/08 00:05:48;;;;;;;1.00;0.45;;;;;;;7.83;100.00;97372.84;7389352;19;20757;-79
2023/01/08 00:08:14;;;;;;;5.15;0.55;;;;;;;7.90;100.00;97388.16;7389898;19;20021;-79
2023/01/08 00:10:41;;;;;;;0.10;0.00;;;;;;;7.94;100.00;97383.09;7388914;19;20361;-79
2023/01/08 00:13:07;;;;;;;7.18;0.40;;;;;;;7.97;100.00;97368.94;7385418;19;20021;-79
2023/01/08 00:15:33;;;;;;;0.10;0.05;;;;;;;7.94;100.00;97360.91;7390044;19;20043;-79
2023/01/08 00:18:00;;;;;;;0.10;0.03;;;;;;;7.88;100.00;97363.00;7389293;19;20029;-79
2023/01/08 00:20:27;;;;;;;0.20;0.20;;;;;;;7.87;100.00;97361.47;7390186;19;20014;-79
2023/01/08 00:22:53;;;;;;;9.90;0.70;;;;;;;7.86;100.00;97363.50;7387351;19;20018;-79
2023/01/08 00:25:19;;;;;;;9.98;1.05;;;;;;;7.84;100.00;97368.81;7390368;19;20018;-79
2023/01/08 00:27:45;;;;;;;3.40;1.10;;;;;;;7.84;100.00;97362.53;7390984;19;20018;-79
2023/01/08 00:30:12;;;;;;;3.25;0.77;;;;;;;7.82;100.00;97365.06;7385924;19;20584;-79
2023/01/08 00:32:38;;;;;;;0.47;0.30;;;;;;;7.75;100.00;97355.31;7386313;19;20366;-79
2023/01/08 00:35:05;;;;;;;1.00;0.75;;;;;;;7.74;100.00;97366.88;7388263;19;20107;-79
2023/01/08 00:37:31;;;;;;;0.75;0.25;;;;;;;7.62;100.00;97358.66;7389917;19;20019;-79
2023/01/08 00:39:57;;;;;;;1.92;0.35;;;;;;;7.54;100.00;97360.50;7389418;19;20047;-79
2023/01/08 00:42:23;;;;;;;0.20;0.20;;;;;;;7.47;100.00;97371.41;7386865;19;20022;-79
2023/01/08 00:44:49;;;;;;;3.92;0.20;;;;;;;7.38;100.00;97378.00;7388677;19;20409;-79
2023/01/08 00:47:15;;;;;;;3.83;1.42;;;;;;;7.33;100.00;97364.94;7389054;19;20482;-79
2023/01/08 00:49:42;;;;;;;0.10;0.00;;;;;;;7.37;100.00;97367.44;7387120;19;20019;-79
2023/01/08 00:52:08;;;;;;;0.10;0.10;;;;;;;7.44;100.00;97366.88;7387245;19;20018;-79
2023/01/08 00:54:34;;;;;;;1.08;0.77;;;;;;;7.47;100.00;97369.34;7387656;19;20375;-79
2023/01/08 00:57:00;;;;;;;0.20;0.13;;;;;;;7.52;100.00;97360.28;7385412;19;20022;-79
2023/01/08 00:59:26;;;;;;;0.35;0.25;;;;;;;7.57;100.00;97362.25;7386880;19;20018;-79
2023/01/08 01:01:53;;;;;;;0.10;0.10;;;;;;;7.68;100.00;97355.09;7386398;19;20030;-79
2023/01/08 01:04:19;;;;;;;0.03;0.03;;;;;;;7.69;100.00;97349.03;7388129;19;20022;-79
2023/01/08 01:06:45;;;;;;;0.75;0.45;;;;;;;7.64;100.00;97350.59;7392648;19;20022;-79
2023/01/08 01:09:12;;;;;;;2.10;0.50;;;;;;;7.67;100.00;97342.53;7390543;19;20021;-80
2023/01/08 01:11:38;;;;;;;6.85;0.45;;;;;;;7.74;100.00;97347.50;7390426;19;20043;-80
2023/01/08 01:14:04;;;;;;;0.95;0.20;;;;;;;7.77;100.00;97338.16;7386700;19;20077;-80
2023/01/08 01:16:30;;;;;;;1.05;0.70;;;;;;;7.84;100.00;97346.63;7386321;19;20018;-79
2023/01/08 01:18:57;;;;;;;4.43;0.50;;;;;;;7.88;100.00;97351.91;7386933;19;20022;-79
2023/01/08 01:21:26;;;;;;;0.32;0.32;;;;;;;7.78;100.00;97331.34;7385922;19;20034;-80
2023/01/08 01:23:54;;;;;;;3.30;0.95;;;;;;;7.72;100.00;97327.88;7384014;19;20035;-80
2023/01/08 01:26:21;;;;;;;3.05;0.35;;;;;;;7.64;100.00;97325.66;7387568;19;20506;-79
2023/01/08 01:28:49;;;;;;;0.10;0.10;;;;;;;7.64;100.00;97338.78;7391022;19;20106;-80
2023/01/08 01:31:17;;;;;;;2.45;0.10;;;;;;;7.34;100.00;97332.47;7387798;19;20018;-80
2023/01/08 01:33:43;;;;;;;0.75;0.30;;;;;;;7.30;100.00;97323.69;7386965;19;20077;-80
2023/01/08 01:36:14;;;;;;;0.25;0.25;;;;;;;7.40;100.00;97327.66;7384886;19;20022;-80
2023/01/08 01:38:46;;;;;;;0.10;0.10;;;;;;;7.24;100.00;97340.34;7390517;19;20011;-80
2023/01/08 01:41:27;;;;;;;0.40;0.35;;;;;;;7.24;100.00;97329.28;7386709;19;20369;-80
2023/01/08 01:43:55;;;;;;;;;;;;;;;7.33;100.00;97320.66;7388269;19;20022;-80
2023/01/08 01:46:37;;;;;;;0.22;0.20;;;;;;;7.43;100.00;97319.06;7385494;19;19994;-80
2023/01/08 01:49:14;;;;;;;0.10;0.10;;;;;;;7.64;100.00;97325.66;7390308;19;20052;-80
2023/01/08 01:51:49;;;;;;;0.20;0.20;;;;;;;7.46;100.00;97312.50;7386206;19;20101;-80
2023/01/08 01:54:17;;;;;;;0.10;0.10;;;;;;;7.42;100.00;97316.81;7383804;19;20452;-79
2023/01/08 01:56:44;;;;;;;0.63;0.30;;;;;;;7.42;100.00;97305.72;7386095;19;20010;-80
2023/01/08 01:59:11;;;;;;;0.43;0.40;;;;;;;7.50;100.00;97301.88;7387099;19;20019;-80
2023/01/08 02:01:40;;;;;;;0.25;0.25;;;;;;;7.51;100.00;97314.44;7383172;19;20026;-80
2023/01/08 02:04:11;;;;;;;2.40;0.50;;;;;;;7.56;100.00;97319.19;7385618;19;20018;-80
2023/01/08 02:06:46;;;;;;;0.70;0.65;;;;;;;7.62;100.00;97330.97;7389687;19;20117;-80
2023/01/08 02:09:40;;;;;;;0.10;0.10;;;;;;;7.72;100.00;97317.56;7387924;19;20024;-80
2023/01/08 02:12:16;;;;;;;7.32;0.55;;;;;;;7.69;100.00;97323.38;7389720;19;20038;-80
2023/01/08 02:15:04;;;;;;;0.10;0.00;;;;;;;7.59;100.00;97337.56;7385611;19;20019;-80
2023/01/08 02:17:55;;;;;;;0.35;0.20;;;;;;;7.51;100.00;97336.59;7387492;19;20014;-80
2023/01/08 02:20:36;;;;;;;0.10;0.00;;;;;;;7.61;100.00;97345.34;7385033;19;20022;-80
2023/01/08 02:23:20;;;;;;;0.10;0.10;;;;;;;7.68;100.00;97344.78;7383416;19;20019;-80
2023/01/08 02:26:18;;;;;;;0.20;0.20;;;;;;;7.82;100.00;97351.94;7384638;19;20034;-80
2023/01/08 02:29:10;;;;;;;4.47;0.47;;;;;;;7.88;100.00;97352.66;7385887;19;20045;-80
2023/01/08 02:31:39;;;;;;;1.75;0.47;;;;;;;7.47;100.00;97361.06;7387793;19;20017;-79
2023/01/08 02:34:05;;;;;;;0.65;0.20;;;;;;;7.64;100.00;97355.41;7391738;19;20086;-80
2023/01/08 02:36:38;;;;;;;0.10;0.08;;;;;;;7.77;100.00;97363.09;7393731;19;20025;-80
2023/01/08 02:39:17;;;;;;;3.85;0.55;;;;;;;7.86;100.00;97360.00;7397504;19;20025;-80
2023/01/08 02:41:43;;;;;;;1.33;0.38;;;;;;;7.90;100.00;97361.22;7394095;19;20799;-80
2023/01/08 02:44:16;;;;;;;0.10;0.10;;;;;;;7.94;100.00;97360.91;7390888;19;20485;-80
2023/01/08 02:46:43;;;;;;;0.43;0.43;;;;;;;7.93;100.00;97356.63;7390435;19;20018;-80
2023/01/08 02:49:12;;;;;;;0.55;0.45;;;;;;;7.87;100.00;97347.63;7395120;19;20496;-80
2023/01/08 02:51:46;;;;;;;0.10;0.00;;;;;;;7.88;100.00;97340.84;7393050;19;20035;-80
2023/01/08 02:54:16;;;;;;;3.17;0.15;;;;;;;7.82;100.00;97342.91;7389759;19;20524;-80
2023/01/08 02:56:47;;;;;;;0.10;0.00;;;;;;;7.59;100.00;97337.56;7392368;19;20980;-80
2023/01/08 02:59:16;;;;;;;1.45;0.43;;;;;;;7.61;100.00;97332.25;7396479;19;21022;-80
2023/01/08 03:01:43;;;;;;;0.50;0.20;;;;;;;7.42;100.00;97339.72;7390213;19;20014;-80
2023/01/08 03:04:17;;;;;;;1.00;0.38;;;;;;;7.60;100.00;97332.78;7392287;19;20010;-81
2023/01/08 03:06:45;;;;;;;0.00;0.00;;;;;;;7.73;100.00;97338.47;7393677;19;20010;-81
2023/01/08 03:09:12;;;;;;;1.20;0.47;;;;;;;7.74;100.00;97336.41;7392750;19;20018;-80
2023/01/08 03:12:10;;;;;;;0.60;0.20;;;;;;;7.80;100.00;97340.63;7394108;19;20481;-80
2023/01/08 03:14:49;;;;;;;0.30;0.30;;;;;;;7.77;100.00;97336.16;7389249;19;20010;-80
2023/01/08 03:17:39;;;;;;;0.25;0.25;;;;;;;7.74;100.00;97330.88;7392244;19;20440;-80
2023/01/08 03:20:15;;;;;;;0.10;0.10;;;;;;;7.63;100.00;97337.25;7386744;19;20025;-80
2023/01/08 03:22:46;;;;;;;0.15;0.15;;;;;;;7.95;100.00;97346.53;7387047;19;20033;-83
2023/01/08 03:25:16;;;;;;;0.10;0.00;;;;;;;7.72;100.00;97339.72;7391860;19;20019;-80
2023/01/08 03:27:47;;;;;;;0.10;0.10;;;;;;;7.63;100.00;97337.25;7393603;19;20029;-79
2023/01/08 03:30:17;;;;;;;0.10;0.00;;;;;;;7.63;100.00;97329.72;7389417;19;20460;-79
2023/01/08 03:32:46;;;;;;;4.80;0.90;;;;;;;7.53;100.00;97336.09;7390553;19;20014;-80
2023/01/08 03:35:17;;;;;;;0.10;0.10;;;;;;;7.43;100.00;97327.34;7391294;19;20366;-80
2023/01/08 03:37:49;;;;;;;3.40;0.85;;;;;;;7.45;100.00;97333.13;7390900;19;20347;-79
2023/01/08 03:40:22;;;;;;;0.17;0.17;;;;;;;7.39;100.00;97337.97;7389729;19;20145;-80
2023/01/08 03:42:48;;;;;;;15.23;0.82;;;;;;;7.32;100.00;97335.75;7388418;19;20071;-80
2023/01/08 03:45:14;;;;;;;0.60;0.35;;;;;;;7.33;100.00;97317.88;7389882;19;20047;-80
2023/01/08 03:47:42;;;;;;;1.02;0.15;;;;;;;7.31;100.00;97317.66;7392671;19;20022;-80
2023/01/08 03:50:15;;;;;;;0.10;0.10;;;;;;;7.30;100.00;97324.44;7389707;19;20026;-80
2023/01/08 03:52:41;;;;;;;0.47;0.47;;;;;;;7.19;100.00;97330.06;7390052;19;20010;-80
2023/01/08 03:55:08;;;;;;;0.10;0.10;;;;;;;7.04;100.00;97329.66;7389386;19;20018;-80
2023/01/08 03:57:34;;;;;;;0.10;0.08;;;;;;;6.89;100.00;97340.31;7391709;19;20026;-80
2023/01/08 04:00:00;;;;;;;8.88;0.30;;;;;;;6.93;100.00;97338.00;7388134;19;20493;-80
2023/01/08 04:02:26;;;;;;;0.10;0.10;;;;;;;7.05;100.00;97339.47;7387162;19;20017;-80
2023/01/08 04:04:52;;;;;;;0.10;0.00;;;;;;;7.02;100.00;97334.22;7389873;19;20031;-80
2023/01/08 04:07:19;;;;;;;0.10;0.10;;;;;;;7.03;100.00;97342.00;7391044;19;20054;-80
2023/01/08 04:09:45;;;;;;;0.10;0.00;;;;;;;7.21;100.00;97335.81;7389551;19;20494;-80
2023/01/08 04:12:12;;;;;;;0.52;0.28;;;;;;;7.09;100.00;97337.19;7393539;19;20482;-80
2023/01/08 04:14:38;;;;;;;0.15;0.10;;;;;;;7.06;100.00;97340.22;7388563;19;20025;-80
2023/01/08 04:17:04;;;;;;;8.85;0.30;;;;;;;7.22;100.00;97336.56;7387916;19;20078;-80
2023/01/08 04:19:30;;;;;;;0.30;0.30;;;;;;;7.30;100.00;97335.50;7385539;19;20038;-79
2023/01/08 04:21:56;;;;;;;0.57;0.25;;;;;;;7.36;100.00;97336.22;7389098;19;20033;-80
2023/01/08 04:24:23;;;;;;;0.10;0.10;;;;;;;7.36;100.00;97344.53;7388817;19;20030;-80
2023/01/08 04:26:49;;;;;;;0.17;0.15;;;;;;;7.41;100.00;97340.97;7387693;19;20082;-80
2023/01/08 04:29:15;;;;;;;0.13;0.13;;;;;;;7.35;100.00;97333.97;7390739;19;20504;-80
2023/01/08 04:31:41;;;;;;;1.85;0.35;;;;;;;7.40;100.00;97342.25;7389211;19;20018;-80
2023/01/08 04:34:09;;;;;;;0.10;0.00;;;;;;;7.22;100.00;97353.19;7387771;19;20429;-80
2023/01/08 04:36:35;;;;;;;2.85;0.20;;;;;;;7.17;100.00;97346.41;7387451;19;20038;-80
2023/01/08 04:39:01;;;;;;;0.10;0.10;;;;;;;6.77;100.00;97352.69;7391370;19;20043;-80
2023/01/08 04:41:27;;;;;;;0.20;0.20;;;;;;;6.19;100.00;97345.66;7389603;19;20024;-80
2023/01/08 04:43:53;;;;;;;0.63;0.40;;;;;;;6.07;100.00;97353.97;7385388;19;20015;-79
2023/01/08 04:46:19;;;;;;;0.10;0.00;;;;;;;6.82;100.00;97349.16;7389317;19;20038;-80
2023/01/08 04:48:46;;;;;;;0.38;0.35;;;;;;;6.87;100.00;97351.13;7389450;19;20843;-79
2023/01/08 04:51:12;;;;;;;0.10;0.10;;;;;;;6.66;100.00;97342.44;7385117;19;20029;-80
2023/01/08 04:53:40;;;;;;;4.03;0.28;;;;;;;6.68;100.00;97347.47;7383943;19;20015;-80
2023/01/08 04:56:08;;;;;;;1.08;0.32;;;;;;;6.73;100.00;97347.44;7387010;19;20026;-79
2023/01/08 04:58:36;;;;;;;0.10;0.00;;;;;;;6.77;100.00;97344.41;7390431;19;20022;-79
2023/01/08 05:01:14;;;;;;;0.90;0.88;;;;;;;6.75;100.00;97344.94;7387860;19;20027;-79
2023/01/08 05:03:40;;;;;;;0.80;0.32;;;;;;;6.81;100.00;97342.13;7386982;19;20017;-79
2023/01/08 05:06:07;;;;;;;0.52;0.52;;;;;;;6.89;100.00;97337.53;7391489;19;20487;-80
2023/01/08 05:08:33;;;;;;;0.10;0.10;;;;;;;6.97;100.00;97332.22;7388860;19;20044;-79
2023/01/08 05:11:00;;;;;;;3.53;0.10;;;;;;;6.97;100.00;97326.69;7389092;19;20018;-80
2023/01/08 05:13:27;;;;;;;0.10;0.10;;;;;;;6.99;100.00;97336.00;7387374;19;20038;-80
2023/01/08 05:15:58;;;;;;;0.10;0.00;;;;;;;7.06;100.00;97329.16;7385742;19;20018;-80
2023/01/08 05:18:24;;;;;;;0.10;0.05;;;;;;;7.14;100.00;97328.09;7388567;19;20018;-80
2023/01/08 05:20:50;;;;;;;0.30;0.30;;;;;;;7.19;100.00;97341.13;7385463;19;20022;-80
2023/01/08 05:23:16;;;;;;;0.10;0.08;;;;;;;7.23;100.00;97338.09;7386100;19;20018;-80
2023/01/08 05:25:42;;;;;;;0.28;0.28;;;;;;;7.28;100.00;97326.97;7385941;19;20023;-80
2023/01/08 05:28:08;;;;;;;0.10;0.00;;;;;;;7.31;100.00;97327.97;7387089;19;20022;-80
2023/01/08 05:30:36;;;;;;;1.65;0.52;;;;;;;7.33;100.00;97331.72;7385357;19;20111;-80
2023/01/08 05:33:02;;;;;;;0.10;0.00;;;;;;;7.35;100.00;97334.72;7386013;19;20053;-79
2023/01/08 05:35:28;;;;;;;0.10;0.10;;;;;;;7.38;100.00;97361.41;7387170;19;20018;-80
2023/01/08 05:37:54;;;;;;;0.10;0.00;;;;;;;7.54;100.00;97370.81;7386597;19;20022;-80
2023/01/08 05:40:20;;;;;;;0.10;0.00;;;;;;;7.54;100.00;97368.06;7384849;19;20025;-81
2023/01/08 05:42:46;;;;;;;0.10;0.10;;;;;;;7.43;100.00;97368.88;7384751;19;20015;-80
2023/01/08 05:45:14;;;;;;;0.10;0.10;;;;;;;7.31;100.00;97372.25;7384474;19;20019;-81
2023/01/08 05:47:40;;;;;;;0.63;0.30;;;;;;;7.16;100.00;97375.38;7386356;19;20052;-82
2023/01/08 05:50:07;;;;;;;0.10;0.00;;;;;;;7.05;100.00;97369.91;7385796;19;20523;-82
2023/01/08 05:52:33;;;;;;;0.10;0.10;;;;;;;6.98;100.00;97369.69;7385557;19;20035;-82
2023/01/08 05:54:59;;;;;;;0.10;0.10;;;;;;;6.93;100.00;97370.47;7383249;19;20070;-82
2023/01/08 05:57:25;;;;;;;0.10;0.10;;;;;;;6.90;100.00;97375.03;7384092;19;20114;-82
2023/01/08 05:59:51;;;;;;;0.10;0.00;;;;;;;6.84;100.00;97363.25;7386714;19;20031;-81
2023/01/08 06:02:17;;;;;;;0.10;0.10;;;;;;;6.74;100.00;97367.53;7386332;19;20042;-82
2023/01/08 06:04:43;;;;;;;0.10;0.00;;;;;;;6.70;100.00;97367.06;7385736;19;20015;-82
2023/01/08 06:07:10;;;;;;;0.10;0.10;;;;;;;6.66;100.00;97366.59;7385092;19;20018;-83
2023/01/08 06:09:36;;;;;;;0.10;0.10;;;;;;;6.71;100.00;97354.75;7383403;19;20018;-83
2023/01/08 06:12:02;;;;;;;0.10;0.00;;;;;;;6.73;100.00;97352.22;7389136;19;20019;-83
2023/01/08 06:14:28;;;;;;;0.10;0.00;;;;;;;6.76;100.00;97356.72;7384086;19;20524;-83
2023/01/08 06:16:54;;;;;;;0.10;0.10;;;;;;;6.74;100.00;97359.25;7384709;19;20011;-83
2023/01/08 06:19:21;;;;;;;0.17;0.17;;;;;;;6.68;100.00;97355.75;7383558;19;20026;-83
2023/01/08 06:21:47;;;;;;;0.10;0.10;;;;;;;6.66;100.00;97356.28;7383200;19;20482;-84
2023/01/08 06:24:13;;;;;;;0.10;0.00;;;;;;;6.64;100.00;97360.81;7386012;19;20018;-83
2023/01/08 06:26:40;;;;;;;0.10;0.00;;;;;;;6.65;100.00;97359.53;7385404;19;20078;-83
2023/01/08 06:29:06;;;;;;;0.10;0.00;;;;;;;6.66;100.00;97356.28;7386545;19;20527;-83
2023/01/08 06:31:32;;;;;;;0.10;0.00;;;;;;;6.72;100.00;97356.25;7383102;19;20042;-83
2023/01/08 06:33:58;;;;;;;0.10;0.10;;;;;;;6.73;100.00;97346.69;7384805;19;20018;-82
2023/01/08 06:36:24;;;;;;;0.10;0.10;;;;;;;6.73;100.00;97346.69;7383045;19;20006;-82
2023/01/08 06:38:51;;;;;;;0.20;0.20;;;;;;;6.73;100.00;97346.69;7387964;19;20019;-83
2023/01/08 06:41:17;;;;;;;0.10;0.00;;;;;;;6.67;100.00;97343.94;7387550;19;20436;-83
2023/01/08 06:43:43;;;;;;;0.10;0.10;;;;;;;6.66;100.00;97341.69;7383345;19;20025;-83
2023/01/08 06:46:09;;;;;;;0.10;0.10;;;;;;;6.63;100.00;97351.75;7384212;19;20035;-83
2023/01/08 06:48:36;;;;;;;0.10;0.10;;;;;;;6.66;100.00;97352.75;7387512;19;20010;-83
2023/01/08 06:51:03;;;;;;;0.15;0.15;;;;;;;6.60;100.00;97355.56;7384190;19;20050;-83
2023/01/08 06:53:30;;;;;;;0.10;0.00;;;;;;;6.64;100.00;97352.50;7380508;19;20027;-82
2023/01/08 06:55:57;;;;;;;0.10;0.00;;;;;;;6.64;100.00;97349.75;7384323;19;20025;-83
2023/01/08 06:58:25;;;;;;;0.10;0.10;;;;;;;6.63;100.00;97354.53;7386243;19;20034;-83
2023/01/08 07:00:51;;;;;;;0.10;0.10;;;;;;;6.66;100.00;97341.69;7385791;19;20018;-84
2023/01/08 07:03:17;;;;;;;0.10;0.00;;;;;;;6.73;100.00;97341.91;7382016;19;20041;-83
2023/01/08 07:05:44;;;;;;;0.10;0.00;;;;;;;7.24;100.00;97342.34;7386285;19;20047;-83
2023/01/08 07:08:14;;;;;;;0.10;0.08;;;;;;;6.89;100.00;97337.53;7385224;19;20017;-83
2023/01/08 07:10:41;;;;;;;0.10;0.08;;;;;;;6.60;100.00;97343.75;7383151;19;20014;-83
2023/01/08 07:13:08;;;;;;;0.10;0.10;;;;;;;6.62;100.00;97330.91;7381811;19;20015;-83
2023/01/08 07:15:35;;;;;;;0.10;0.05;;;;;;;6.61;100.00;97314.81;7384517;19;20035;-83
2023/01/08 07:18:06;;;;;;;0.10;0.10;;;;;;;6.53;100.00;97316.63;7389856;19;20037;-82
2023/01/08 07:20:33;;;;;;;1.30;0.35;;;;;;;6.41;100.00;97317.94;7391861;19;20015;-82
2023/01/08 07:23:04;;;;;;;0.10;0.10;;;;;;;6.31;100.00;97316.69;7391744;19;20025;-81
2023/01/08 07:25:31;;;;;;;0.15;0.15;;;;;;;6.25;100.00;97319.50;7393774;19;20014;-82
2023/01/08 07:27:58;;;;;;;0.10;0.10;;;;;;;6.22;100.00;97316.97;7393197;19;20029;-82
2023/01/08 07:30:25;;;;;;;0.10;0.00;;;;;;;6.26;100.00;97314.72;7391477;19;20022;-81
2023/01/08 07:32:51;;;;;;;0.10;0.10;;;;;;;6.26;100.00;97298.16;7390710;19;20038;-81
2023/01/08 07:35:18;;;;;;;0.10;0.10;;;;;;;6.23;100.00;97283.34;7391744;19;20011;-81
2023/01/08 07:37:44;;;;;;;0.52;0.10;;;;;;;6.15;100.00;97281.59;7392330;19;20476;-81
2023/01/08 07:40:11;;;;;;;0.10;0.10;;;;;;;6.04;100.00;97285.16;7390386;19;20037;-81
2023/01/08 07:42:38;;;;;;;0.10;0.10;;;;;;;5.91;100.00;97276.66;7388200;19;20365;-82
2023/01/08 07:45:05;;;;;;;0.10;0.10;;;;;;;5.82;100.00;97263.84;7391587;19;20021;-81
2023/01/08 07:47:31;;;;;;;0.30;0.22;;;;;;;5.76;100.00;97254.09;7390370;19;20025;-81
2023/01/08 07:49:57;;;;;;;0.10;0.10;;;;;;;5.82;100.00;97250.06;7389663;19;20038;-80
2023/01/08 07:52:23;;;;;;;0.10;0.10;;;;;;;5.79;100.00;97251.06;7389200;19;20465;-81
2023/01/08 07:54:49;;;;;;;0.10;0.10;;;;;;;5.67;100.00;97255.13;7390514;19;20381;-81
2023/01/08 07:57:16;;;;;;;2.05;0.30;;;;;;;5.55;100.00;97244.56;7392014;19;20035;-80
2023/01/08 07:59:42;;;;;;;7.53;1.85;;;;;;;5.47;100.00;97257.41;7391253;19;20033;-80
2023/01/08 08:02:11;;;;;;;0.10;0.10;;;;;;;5.43;100.00;97262.44;7388276;19;20041;-79
2023/01/08 08:04:37;;;;;;;5.05;0.20;;;;;;;5.33;100.00;97248.88;7387603;19;20382;-80
2023/01/08 08:07:03;;;;;;;0.20;0.20;;;;;;;5.34;100.00;97244.13;7390023;19;20018;-79
2023/01/08 08:09:29;;;;;;;0.10;0.10;;;;;;;5.29;100.00;97242.88;7388964;19;20014;-80
2023/01/08 08:11:56;;;;;;;8.02;0.55;;;;;;;5.27;100.00;97250.16;7393169;19;20026;-80
2023/01/08 08:14:22;;;;;;;0.10;0.10;;;;;;;5.22;100.00;97250.88;7388371;19;20025;-80
2023/01/08 08:16:48;;;;;;;0.10;0.10;;;;;;;5.28;100.00;97265.47;7389164;19;20480;-80
2023/01/08 08:19:14;;;;;;;0.30;0.30;;;;;;;5.34;100.00;97257.91;7393590;19;20428;-80
2023/01/08 08:21:40;;;;;;;0.13;0.10;;;;;;;5.56;100.00;97244.09;7389812;19;20015;-80
2023/01/08 08:24:07;;;;;;;0.10;0.10;;;;;;;5.73;100.00;97239.28;7389661;19;20345;-80
2023/01/08 08:26:33;;;;;;;4.75;0.75;;;;;;;5.51;100.00;97230.28;7390581;19;20022;-80
2023/01/08 08:28:59;;;;;;;0.15;0.15;;;;;;;6.05;100.00;97234.94;7392611;19;20045;-80
2023/01/08 08:31:25;;;;;;;0.10;0.10;;;;;;;6.62;100.00;97230.59;7388184;19;20018;-80
2023/01/08 08:33:52;;;;;;;0.10;0.10;;;;;;;6.35;100.00;97237.03;7386348;19;20014;-80
2023/01/08 08:36:18;;;;;;;0.10;0.10;;;;;;;6.05;100.00;97234.16;7389760;19;20029;-80
2023/01/08 08:38:44;;;;;;;0.10;0.00;;;;;;;5.86;100.00;97238.75;7392342;19;20025;-80
2023/01/08 08:41:10;;;;;;;0.10;0.10;;;;;;;5.80;100.00;97233.25;7389539;19;20042;-79
2023/01/08 08:43:36;;;;;;;0.10;0.10;;;;;;;5.68;100.00;97231.75;7386377;19;20014;-79
2023/01/08 08:46:02;;;;;;;0.15;0.15;;;;;;;5.69;100.00;97224.22;7387304;19;20018;-79
2023/01/08 08:48:28;;;;;;;0.10;0.10;;;;;;;5.75;100.00;97228.47;7389157;19;20049;-79
2023/01/08 08:50:54;;;;;;;0.10;0.00;;;;;;;5.82;100.00;97211.38;7387483;19;20018;-79
2023/01/08 08:53:21;;;;;;;0.10;0.00;;;;;;;5.90;100.00;97212.38;7384588;19;20010;-79
2023/01/08 08:55:47;;;;;;;0.15;0.08;;;;;;;5.94;100.00;97198.31;7387485;19;20478;-79
2023/01/08 08:58:13;;;;;;;0.82;0.80;;;;;;;5.88;100.00;97203.84;7390550;19;20068;-79
2023/01/08 09:00:41;;;;;;;0.10;0.10;;;;;;;5.93;100.00;97203.06;7386874;19;20025;-79
2023/01/08 09:03:12;;;;;;;0.10;0.10;;;;;;;5.98;100.00;97196.78;7387223;19;20021;-79
2023/01/08 09:05:38;;;;;;;0.10;0.10;;;;;;;6.23;100.00;97194.91;7389903;19;20053;-79
2023/01/08 09:08:05;;;;;;;0.10;0.00;;;;;;;6.26;100.00;97199.41;7388906;19;20534;-78
2023/01/08 09:10:31;;;;;;;0.20;0.20;;;;;;;6.28;100.00;97190.63;7385021;19;20014;-80
2023/01/08 09:12:57;;;;;;;0.10;0.10;;;;;;;6.38;100.00;97189.03;7383969;19;20038;-79
2023/01/08 09:15:23;;;;;;;3.85;0.20;;;;;;;6.44;100.00;97192.50;7387181;19;20030;-79
2023/01/08 09:17:56;;;;;;;0.10;0.10;;;;;;;6.72;100.00;97170.94;7387928;19;20029;-79
2023/01/08 09:20:24;;;;;;;0.55;0.25;;;;;;;6.62;100.00;97184.34;7385861;19;20239;-79
2023/01/08 09:22:51;;;;;;;0.65;0.20;;;;;;;6.76;100.00;97179.72;7384402;19;20017;-79
2023/01/08 09:25:17;;;;;;;0.45;0.30;;;;;;;7.00;100.00;97177.00;7385017;19;20017;-79
2023/01/08 09:27:43;;;;;;;5.38;0.88;;;;;;;7.00;100.00;97154.88;7386851;19;20015;-79
2023/01/08 09:30:10;;;;;;;9.27;1.15;;;;;;;6.91;100.00;97163.50;7384268;19;20512;-79
2023/01/08 09:32:37;;;;;;;2.55;0.73;;;;;;;6.92;100.00;97169.78;7383901;19;20361;-79
2023/01/08 09:35:04;;;;;;;0.98;0.35;;;;;;;6.92;100.00;97165.00;7384369;19;20707;-78
2023/01/08 09:37:30;;;;;;;2.70;1.08;;;;;;;6.99;100.00;97164.44;7387231;19;20496;-79
2023/01/08 09:39:56;;;;;;;7.32;0.82;;;;;;;7.04;100.00;97171.94;7384121;19;20039;-79
2023/01/08 09:42:26;;;;;;;0.20;0.10;;;;;;;7.10;100.00;97164.34;7383140;19;20047;-79
2023/01/08 09:44:56;;;;;;;1.35;0.73;;;;;;;7.12;100.00;97166.59;7384363;19;20026;-79
2023/01/08 09:47:30;;;;;;;0.15;0.10;;;;;;;7.15;100.00;97146.94;7385343;19;20017;-78
2023/01/08 09:50:00;;;;;;;1.65;0.13;;;;;;;7.48;100.00;97149.34;7386243;19;20480;-78
2023/01/08 09:52:28;;;;;;;3.40;0.40;;;;;;;7.43;100.00;97146.63;7385852;19;20020;-78
2023/01/08 09:54:55;;;;;;;0.82;0.40;;;;;;;7.84;100.00;97135.34;7386113;19;20039;-78
2023/01/08 09:57:21;;;;;;;0.60;0.60;;;;;;;7.67;100.00;97148.66;7384683;19;20022;-78
2023/01/08 09:59:48;;;;;;;0.20;0.20;;;;;;;7.42;100.00;97140.38;7385787;19;20018;-78
2023/01/08 10:02:23;;;;;;;0.03;0.00;;;;;;;7.42;100.00;97136.84;7383682;19;20019;-78
2023/01/08 10:04:59;;;;;;;0.52;0.28;;;;;;;7.43;100.00;97139.09;7384923;19;20019;-78
2023/01/08 10:07:27;;;;;;;1.50;0.20;;;;;;;7.62;100.00;97128.78;7383716;19;20040;-77
2023/01/08 10:09:54;;;;;;;0.77;0.25;;;;;;;8.07;100.00;97114.38;7385536;19;20017;-78
2023/01/08 10:12:31;;;;;;;0.93;0.63;;;;;;;7.93;100.00;97104.47;7384794;19;20025;-78
2023/01/08 10:15:02;;;;;;;0.30;0.30;;;;;;;7.90;100.00;97111.09;7385588;19;20090;-78
2023/01/08 10:18:03;;;;;;;12.07;0.63;;;;;;;7.91;100.00;97109.78;7384124;19;20497;-78
2023/01/08 10:20:30;;;;;;;0.10;0.00;;;;;;;7.82;100.00;97110.19;7384840;19;20014;-77
2023/01/08 10:23:08;;;;;;;0.28;0.28;;;;;;;7.94;100.00;97094.91;7383629;19;20010;-78
2023/01/08 10:25:51;;;;;;;0.17;0.17;;;;;;;7.82;100.00;97099.09;7384204;19;20391;-78
2023/01/08 10:28:21;;;;;;;2.20;0.40;;;;;;;7.97;100.00;97099.41;7388193;19;20033;-78
2023/01/08 10:30:48;;;;;;;0.32;0.30;;;;;;;7.80;100.00;97082.25;7383747;19;20496;-78
2023/01/08 10:33:17;;;;;;;0.10;0.10;;;;;;;7.86;100.00;97080.16;7382572;19;20015;-78
2023/01/08 10:35:52;;;;;;;0.10;0.10;;;;;;;7.93;100.00;97076.78;7384738;19;20018;-77
2023/01/08 10:38:34;;;;;;;0.10;0.10;;;;;;;7.75;100.00;97077.53;7385174;19;20015;-78
2023/01/08 10:41:04;;;;;;;0.65;0.35;;;;;;;7.87;100.00;97073.34;7386692;19;20019;-78
2023/01/08 10:43:34;;;;;;;0.10;0.10;;;;;;;8.17;100.00;97062.81;7380771;19;20018;-78
2023/01/08 10:46:06;;;;;;;1.23;0.30;;;;;;;8.27;100.00;97066.75;7383192;19;20052;-77
2023/01/08 10:48:37;;;;;;;0.30;0.30;;;;;;;8.24;100.00;97053.91;7386068;19;20015;-78
2023/01/08 10:51:12;;;;;;;10.70;0.97;;;;;;;8.61;100.00;97053.81;7382704;19;20022;-78
2023/01/08 10:53:40;;;;;;;0.10;0.00;;;;;;;8.33;100.00;97048.75;7387356;19;20023;-78
2023/01/08 10:56:19;;;;;;;0.13;0.10;;;;;;;8.50;100.00;97040.16;7389186;19;20034;-78
2023/01/08 10:58:45;;;;;;;1.17;0.28;;;;;;;9.08;100.00;97034.56;7389972;19;20414;-78
2023/01/08 11:01:26;;;;;;;5.57;0.63;;;;;;;8.91;100.00;97023.78;7390166;19;20022;-78
2023/01/08 11:03:56;;;;;;;2.70;0.68;;;;;;;8.41;100.00;97026.69;7389640;19;20020;-78
2023/01/08 11:06:26;;;;;;;0.10;0.10;;;;;;;8.26;100.00;97016.09;7392079;19;20029;-78
2023/01/08 11:09:00;;;;;;;0.15;0.15;;;;;;;8.66;100.00;97007.84;7395674;19;20038;-78
2023/01/08 11:11:37;;;;;;;1.58;0.63;;;;;;;8.43;100.00;97001.94;7390325;19;20011;-78
2023/01/08 11:14:15;;;;;;;18.52;1.13;;;;;;;8.64;100.00;96986.16;7389820;19;20594;-79
2023/01/08 11:16:42;;;;;;;0.10;0.00;;;;;;;8.64;100.00;96979.91;7390526;19;20015;-79
2023/01/08 11:19:27;;;;;;;13.90;0.52;;;;;;;8.86;100.00;96983.00;7392254;19;20018;-79
2023/01/08 11:21:56;;;;;;;0.17;0.00;;;;;;;8.33;100.00;96978.66;7391153;19;20022;-78
2023/01/08 11:24:35;;;;;;;0.28;0.28;;;;;;;8.28;100.00;96960.09;7389965;19;20022;-79
2023/01/08 11:27:04;;;;;;;0.15;0.15;;;;;;;8.60;100.00;96957.28;7391835;19;20178;-78
2023/01/08 11:29:54;;;;;;;0.10;0.10;;;;;;;8.66;100.00;96950.34;7390854;19;20109;-79
2023/01/08 11:32:48;;;;;;;0.10;0.10;;;;;;;8.65;100.00;96940.53;7389344;19;20018;-78
2023/01/08 11:35:30;;;;;;;2.53;1.15;;;;;;;8.58;100.00;96941.16;7390913;19;20546;-78
2023/01/08 11:38:01;;;;;;;2.55;1.33;;;;;;;10.41;100.00;96932.28;7391977;19;20515;-78
2023/01/08 11:40:30;;;;;;;16.33;2.78;;;;;;;9.01;100.00;96938.78;7389525;19;20026;-79
2023/01/08 11:43:12;;;;;;;8.13;3.25;;;;;;;9.16;100.00;96932.66;7389578;19;20015;-79